Time;durP1;ratioP1;P1;durP2;ratioP2;P2;SDS_P1;SDS_P2;PMS_P1;PMS_P2;Temp;Humidity;BMP_temperature;BMP_pressure;BME280_temperature;BME280_humidity;BME280_pressure;Samples;Min_cycle;Max_cycle;Signal;HPM_P1;HPM_P2
2022/11/24 00:01:24;;;;;;;20.80;13.70;;;6.50;99.90;;;;;;5018266;28;20219;-54
2022/11/24 00:04:03;;;;;;;60.63;16.53;;;;;;;;;;5018261;28;20544;-54
2022/11/24 00:06:30;;;;;;;16.10;13.03;;;;;;;;;;5018337;28;20536;-55
2022/11/24 00:08:56;;;;;;;17.97;14.27;;;;;;;;;;5018186;28;20196;-54
2022/11/24 00:11:24;;;;;;;27.40;14.50;;;;;;;;;;5016751;28;20172;-55
2022/11/24 00:13:50;;;;;;;36.50;15.50;;;;;;;;;;5017915;28;20172;-57
2022/11/24 00:16:18;;;;;;;30.97;15.40;;;;;;;;;;5024757;23;20243;-90
2022/11/24 00:18:46;;;;;;;25.10;15.53;;;;;;;;;;5045279;28;20179;-93
2022/11/24 00:21:13;;;;;;;29.37;15.27;;;;;;;;;;5046559;28;20205;-91
2022/11/24 00:23:39;;;;;;;56.93;18.20;;;;;;;;;;5051180;28;20209;-91
2022/11/24 00:26:06;;;;;;;51.63;17.17;;;;;;;;;;5049627;28;20183;-92
2022/11/24 00:28:32;;;;;;;17.03;13.87;;;;;;;;;;5050144;28;20229;-90
2022/11/24 00:30:59;;;;;;;33.57;16.77;;;;;;;;;;5050355;28;20179;-90
2022/11/24 00:33:25;;;;;;;41.67;17.87;;;;;;;;;;5050862;28;20214;-92
2022/11/24 00:35:58;;;;;;;38.20;16.53;;;6.40;99.90;;;;;;5050811;28;20179;-91
2022/11/24 00:38:24;;;;;;;45.17;17.40;;;;;;;;;;5050612;28;20749;-91
2022/11/24 00:40:51;;;;;;;16.73;14.10;;;;;;;;;;5051198;28;20190;-93
2022/11/24 00:43:17;;;;;;;20.33;16.03;;;;;;;;;;5050497;28;20332;-91
2022/11/24 00:45:43;;;;;;;33.10;17.53;;;;;;;;;;5050130;28;20171;-93
2022/11/24 00:48:09;;;;;;;17.13;13.97;;;;;;;;;;5050528;28;20220;-91
2022/11/24 00:50:35;;;;;;;19.30;15.20;;;;;;;;;;5049817;28;20670;-91
2022/11/24 00:53:01;;;;;;;18.23;14.37;;;;;;;;;;5050266;28;20211;-91
2022/11/24 00:55:27;;;;;;;16.70;13.93;;;;;;;;;;5049856;28;20175;-90
2022/11/24 00:57:53;;;;;;;19.00;14.10;;;;;;;;;;5051679;28;20171;-90
2022/11/24 01:00:19;;;;;;;22.13;17.00;;;;;;;;;;5050915;28;20185;-90
2022/11/24 01:02:45;;;;;;;17.37;14.23;;;;;;;;;;5050587;28;20175;-91
2022/11/24 01:05:11;;;;;;;16.63;14.27;;;;;;;;;;5051564;28;20175;-90
2022/11/24 01:07:37;;;;;;;17.30;14.67;;;;;;;;;;5052118;28;20639;-90
2022/11/24 01:10:04;;;;;;;16.00;13.83;;;;;;;;;;5050746;28;20182;-91
2022/11/24 01:12:31;;;;;;;16.27;13.63;;;;;;;;;;5050804;28;20242;-91
2022/11/24 01:14:58;;;;;;;20.00;16.23;;;;;;;;;;5050327;28;20195;-91
2022/11/24 01:17:24;;;;;;;20.40;15.23;;;;;;;;;;5050657;28;20195;-92
2022/11/24 01:19:50;;;;;;;16.80;14.60;;;;;;;;;;5050575;28;20195;-92
2022/11/24 01:22:16;;;;;;;15.27;12.90;;;;;;;;;;5049917;28;20272;-91
2022/11/24 01:24:42;;;;;;;16.20;14.07;;;;;;;;;;5049949;28;20187;-90
2022/11/24 01:27:08;;;;;;;14.20;12.33;;;;;;;;;;5051008;28;20175;-89
2022/11/24 01:29:35;;;;;;;14.07;12.57;;;;;;;;;;5053916;28;20199;-92
2022/11/24 01:32:01;;;;;;;12.87;11.57;;;;;;;;;;5053462;28;20207;-92
2022/11/24 01:34:27;;;;;;;13.30;11.53;;;;;;;;;;5055169;28;20320;-92
2022/11/24 01:36:53;;;;;;;15.00;13.40;;;;;;;;;;5053242;28;20175;-90
2022/11/24 01:39:19;;;;;;;13.10;11.70;;;;;;;;;;5053782;28;20368;-90
2022/11/24 01:41:45;;;;;;;16.40;12.73;;;;;;;;;;5053466;28;20175;-91
2022/11/24 01:44:22;;;;;;;14.27;12.77;;;;;;;;;;5053532;28;20175;-92
2022/11/24 01:47:10;;;;;;;12.23;10.97;;;6.00;99.90;;;;;;5053369;28;20259;-90
2022/11/24 01:49:47;;;;;;;11.70;10.50;;;;;;;;;;4995967;28;20271;-90
2022/11/24 01:52:18;;;;;;;12.40;10.97;;;6.30;99.90;;;;;;4995827;28;20216;-90
2022/11/24 01:55:04;;;;;;;11.10;10.00;;;;;;;;;;4995839;28;20207;-90
2022/11/24 01:57:34;;;;;;;11.57;10.07;;;;;;;;;;5011553;28;20187;-92
2022/11/24 02:00:02;;;;;;;11.67;10.47;;;;;;;;;;4996118;28;20230;-90
2022/11/24 02:02:29;;;;;;;12.17;10.87;;;;;;;;;;4996038;28;20196;-91
2022/11/24 02:04:56;;;;;;;11.13;10.03;;;;;;;;;;4995720;28;20177;-90
2022/11/24 02:07:22;;;;;;;13.17;11.53;;;;;;;;;;4996017;28;20446;-91
2022/11/24 02:09:52;;;;;;;12.30;11.03;;;;;;;;;;4995245;28;20668;-93
2022/11/24 02:12:18;;;;;;;11.57;10.37;;;;;;;;;;4994949;28;20677;-90
2022/11/24 02:14:45;;;;;;;10.83;9.77;;;;;;;;;;4995437;28;20759;-91
2022/11/24 02:17:11;;;;;;;12.33;10.87;;;;;;;;;;5012112;28;20188;-92
2022/11/24 02:19:42;;;;;;;11.20;10.00;;;;;;;;;;4995536;28;20189;-89
2022/11/24 02:22:13;;;;;;;10.40;9.33;;;;;;;;;;4995676;28;20187;-91
2022/11/24 02:24:39;;;;;;;10.50;9.40;;;;;;;;;;5011664;28;20214;-90
2022/11/24 02:27:06;;;;;;;10.93;9.80;;;;;;;;;;5038553;28;20191;-90
2022/11/24 02:29:32;;;;;;;11.33;10.13;;;;;;;;;;5052991;28;20176;-92
2022/11/24 02:32:00;;;;;;;12.10;10.50;;;;;;;;;;5052848;28;20289;-91
2022/11/24 02:34:26;;;;;;;10.60;9.30;;;;;;;;;;5052306;28;20190;-91
2022/11/24 02:36:52;;;;;;;9.83;8.83;;;;;;;;;;5052314;28;20179;-91
2022/11/24 02:39:18;;;;;;;11.17;9.97;;;;;;;;;;5051194;28;20210;-91
2022/11/24 02:41:51;;;;;;;10.37;9.27;;;;;;;;;;5052273;28;20278;-89
2022/11/24 02:44:18;;;;;;;10.70;8.93;;;;;;;;;;5052255;28;20266;-91
2022/11/24 02:46:45;;;;;;;9.97;8.97;;;;;;;;;;5052333;28;20274;-91
2022/11/24 02:49:11;;;;;;;10.93;9.83;;;;;;;;;;5051961;28;20194;-91
2022/11/24 02:51:37;;;;;;;10.80;9.70;;;;;;;;;;5052132;28;20590;-91
2022/11/24 02:54:03;;;;;;;10.57;9.10;;;;;;;;;;5051375;28;20201;-92
2022/11/24 02:56:29;;;;;;;10.20;9.00;;;;;;;;;;5052326;28;20273;-91
2022/11/24 02:58:55;;;;;;;11.27;10.10;;;;;;;;;;5051587;28;20167;-90
2022/11/24 03:01:21;;;;;;;9.60;8.60;;;;;;;;;;5052464;28;20194;-91
2022/11/24 03:03:47;;;;;;;10.07;9.03;;;;;;;;;;5051586;28;20254;-90
2022/11/24 03:06:13;;;;;;;10.30;9.20;;;;;;;;;;5051966;28;20171;-92
2022/11/24 03:08:39;;;;;;;10.13;9.13;;;;;;;;;;5051671;28;20175;-90
2022/11/24 03:11:05;;;;;;;10.07;9.03;;;;;;;;;;5051909;28;20197;-91
2022/11/24 03:13:31;;;;;;;10.77;9.57;;;;;;;;;;5051582;28;20236;-90
2022/11/24 03:15:57;;;;;;;10.33;9.03;;;;;;;;;;5051788;28;20270;-91
2022/11/24 03:18:23;;;;;;;11.30;9.47;;;;;;;;;;5051689;28;20179;-91
2022/11/24 03:20:49;;;;;;;10.60;9.50;;;;;;;;;;5051267;28;20290;-92
2022/11/24 03:23:15;;;;;;;10.10;9.10;;;;;;;;;;5051653;28;20182;-90
2022/11/24 03:25:42;;;;;;;9.57;8.57;;;;;;;;;;5051160;28;20175;-88
2022/11/24 03:28:08;;;;;;;10.27;9.27;;;;;;;;;;5052299;28;20179;-89
2022/11/24 03:30:34;;;;;;;11.53;10.33;;;;;;;;;;5051278;28;20182;-90
2022/11/24 03:33:00;;;;;;;10.07;9.07;;;;;;;;;;5051343;28;20609;-92
2022/11/24 03:35:26;;;;;;;9.37;8.47;;;;;;;;;;5050865;28;20718;-91
2022/11/24 03:37:52;;;;;;;11.40;10.20;;;;;;;;;;5051398;28;20220;-91
2022/11/24 03:40:18;;;;;;;10.00;9.00;;;;;;;;;;5051650;28;20183;-91
2022/11/24 03:42:44;;;;;;;10.83;9.73;;;;;;;;;;5051437;28;20187;-91
2022/11/24 03:45:10;;;;;;;10.37;9.27;;;;;;;;;;5051165;28;20309;-92
2022/11/24 03:47:36;;;;;;;11.87;10.67;;;;;;;;;;5051174;28;20623;-94
2022/11/24 03:50:02;;;;;;;10.77;9.67;;;;;;;;;;5050452;28;20176;-91
2022/11/24 03:52:28;;;;;;;10.57;9.47;;;;;;;;;;5051244;28;20202;-90
2022/11/24 03:54:54;;;;;;;11.00;9.90;;;;;;;;;;5050636;28;20175;-91
2022/11/24 03:57:20;;;;;;;11.53;10.33;;;;;;;;;;5051330;28;20181;-93
2022/11/24 03:59:46;;;;;;;10.67;9.57;;;;;;;;;;5051180;28;20175;-92
2022/11/24 04:02:12;;;;;;;10.83;9.47;;;;;;;;;;5050932;28;20179;-92
2022/11/24 04:04:38;;;;;;;11.20;10.10;;;;;;;;;;5050453;28;20201;-92
2022/11/24 04:07:04;;;;;;;10.70;9.53;;;;;;;;;;5050762;28;20229;-91
2022/11/24 04:09:30;;;;;;;11.40;10.17;;;;;;;;;;5051229;28;20266;-91
2022/11/24 04:14:41;;;;;;;11.30;10.20;;;;;;;;;;5051906;28;20240;-91
2022/11/24 04:17:07;;;;;;;10.60;9.50;;;;;;;;;;5050923;28;20198;-90
2022/11/24 04:19:33;;;;;;;9.60;8.60;;;;;;;;;;5051098;28;20692;-92
2022/11/24 04:21:59;;;;;;;8.03;7.23;;;;;;;;;;5050514;28;20183;-90
2022/11/24 04:24:25;;;;;;;8.73;7.43;;;;;;;;;;5050737;28;20225;-90
2022/11/24 04:26:51;;;;;;;8.33;7.43;;;;;;;;;;5051064;28;20197;-92
2022/11/24 04:29:17;;;;;;;9.47;8.50;;;;;;;;;;5051301;28;20167;-91
2022/11/24 04:31:43;;;;;;;8.87;7.93;;;;;;;;;;5050760;28;20217;-91
2022/11/24 04:34:10;;;;;;;9.27;8.27;;;;;;;;;;5050701;28;20171;-91
2022/11/24 04:36:36;;;;;;;9.90;8.87;;;;;;;;;;5058943;28;20226;-94
2022/11/24 04:39:02;;;;;;;9.80;8.80;;;;;;;;;;5069821;28;20174;-93
2022/11/24 04:41:28;;;;;;;9.63;8.63;;;;;;;;;;5069602;28;20228;-91
2022/11/24 04:43:54;;;;;;;11.53;9.83;;;;;;;;;;5069783;28;20643;-90
2022/11/24 04:46:20;;;;;;;12.23;10.40;;;;;;;;;;5069792;28;20728;-90
2022/11/24 04:48:46;;;;;;;10.97;9.87;;;;;;;;;;5070035;28;20653;-90
2022/11/24 04:51:13;;;;;;;11.07;9.97;;;;;;;;;;5050916;28;20183;-91
2022/11/24 04:53:40;;;;;;;11.50;10.30;;;;;;;;;;5050730;28;20203;-90
2022/11/24 04:56:06;;;;;;;11.53;10.33;;;;;;;;;;5051153;28;20175;-92
2022/11/24 04:58:32;;;;;;;11.33;10.00;;;;;;;;;;5051328;28;20209;-92
2022/11/24 05:00:58;;;;;;;11.03;9.87;;;;;;;;;;5051602;28;20578;-90
2022/11/24 05:03:24;;;;;;;10.03;9.03;;;;;;;;;;5054646;28;20266;-91
2022/11/24 05:05:50;;;;;;;11.17;9.47;;;;;;;;;;5054752;28;20175;-93
2022/11/24 05:08:16;;;;;;;10.07;9.07;;;;;;;;;;5054449;28;20260;-92
2022/11/24 05:10:42;;;;;;;15.77;14.07;;;;;;;;;;5055599;28;20595;-91
2022/11/24 05:13:12;;;;;;;10.83;9.47;;;7.80;99.90;;;;;;5054523;28;20209;-94
2022/11/24 05:15:39;;;;;;;11.30;9.53;;;7.50;99.90;;;;;;5054769;28;20349;-93
2022/11/24 05:18:11;;;;;;;9.93;8.93;;;7.30;99.90;;;;;;5054628;28;20218;-91
2022/11/24 05:20:38;;;;;;;10.43;9.37;;;;;;;;;;5054294;28;20270;-90
2022/11/24 05:23:06;;;;;;;10.73;9.63;;;7.80;99.90;;;;;;5054344;28;20179;-91
2022/11/24 05:25:32;;;;;;;10.47;9.37;;;;;;;;;;5054110;28;20179;-93
2022/11/24 05:28:00;;;;;;;11.30;9.40;;;7.80;99.90;;;;;;5054359;28;20205;-92
2022/11/24 05:30:26;;;;;;;10.40;9.30;;;;;;;;;;5054366;28;20185;-90
2022/11/24 05:32:52;;;;;;;10.67;9.00;;;;;;;;;;5053907;28;20226;-90
2022/11/24 05:35:18;;;;;;;9.53;8.53;;;;;;;;;;5053680;28;20666;-90
2022/11/24 05:37:45;;;;;;;10.97;9.07;;;;;;;;;;5054137;28;20182;-92
2022/11/24 05:40:11;;;;;;;9.07;8.10;;;;;;;;;;5053918;28;20638;-89
2022/11/24 05:42:40;;;;;;;9.47;8.07;;;;;;;;;;5053771;28;20645;-91
2022/11/24 05:45:17;;;;;;;9.27;8.13;;;8.20;99.90;;;;;;5053895;28;20203;-90
2022/11/24 05:47:43;;;;;;;9.20;8.30;;;;;;;;;;5053640;28;20638;-89
2022/11/24 05:50:11;;;;;;;9.00;8.10;;;8.30;99.90;;;;;;5053635;28;20227;-91
2022/11/24 05:52:37;;;;;;;8.80;7.90;;;;;;;;;;5053295;28;20302;-90
2022/11/24 05:55:04;;;;;;;9.10;8.20;;;7.80;99.90;;;;;;5053157;28;20265;-90
2022/11/24 05:57:31;;;;;;;10.57;9.27;;;;;;;;;;5053321;28;20252;-93
2022/11/24 05:59:57;;;;;;;11.10;10.00;;;;;;;;;;5053441;28;20229;-90
2022/11/24 06:02:23;;;;;;;11.03;9.63;;;;;;;;;;5054424;28;20183;-91
2022/11/24 06:04:49;;;;;;;12.00;10.40;;;;;;;;;;5054106;28;20662;-91
2022/11/24 06:07:15;;;;;;;10.67;9.37;;;;;;;;;;5053521;28;20183;-92
2022/11/24 06:09:42;;;;;;;12.47;11.17;;;;;;;;;;5048615;28;20215;-90
2022/11/24 06:12:09;;;;;;;12.60;10.87;;;8.20;99.90;;;;;;5044967;28;20211;-90
2022/11/24 06:14:35;;;;;;;10.17;9.07;;;;;;;;;;5051935;28;20187;-90
2022/11/24 06:17:02;;;;;;;12.73;10.13;;;;;;;;;;5050383;28;20187;-90
2022/11/24 06:19:28;;;;;;;10.63;9.53;;;;;;;;;;5055882;23;20232;-52
2022/11/24 06:21:53;;;;;;;11.10;9.47;;;8.10;99.90;;;;;;5010891;28;20191;-50
2022/11/24 06:24:19;;;;;;;11.53;9.73;;;;;;;;;;5011539;28;20525;-48
2022/11/24 06:26:45;;;;;;;9.87;8.83;;;8.30;99.90;;;;;;5012702;28;20177;-50
2022/11/24 06:29:11;;;;;;;10.47;9.37;;;;;;;;;;5010986;28;20186;-53
2022/11/24 06:31:37;;;;;;;10.13;9.10;;;;;;;;;;5010695;28;20188;-47
2022/11/24 06:34:06;;;;;;;10.33;9.03;;;;;;;;;;5010542;28;20227;-50
2022/11/24 06:36:32;;;;;;;9.93;8.93;;;;;;;;;;5010138;28;20173;-48
2022/11/24 06:39:01;;;;;;;10.33;9.10;;;8.40;99.90;;;;;;5012017;28;20183;-49
2022/11/24 06:41:27;;;;;;;10.47;9.03;;;;;;;;;;5012227;28;20176;-47
2022/11/24 06:43:53;;;;;;;9.60;8.10;;;;;;;;;;5006324;28;20302;-50
2022/11/24 06:46:19;;;;;;;10.13;9.07;;;;;;;;;;5010884;28;20413;-49
2022/11/24 06:48:45;;;;;;;10.03;8.97;;;8.30;99.90;;;;;;5012618;28;20173;-47
2022/11/24 06:51:12;;;;;;;9.13;8.10;;;8.10;99.90;;;;;;5012681;28;20208;-47
2022/11/24 06:53:39;;;;;;;10.30;9.17;;;8.10;99.90;;;;;;5011807;28;20223;-49
2022/11/24 06:56:07;;;;;;;12.33;9.97;;;9.00;99.90;;;;;;5012358;28;20192;-49
2022/11/24 06:58:33;;;;;;;10.53;9.43;;;;;;;;;;5012160;28;20234;-49
2022/11/24 07:00:59;;;;;;;9.27;8.37;;;;;;;;;;5012441;28;20279;-50
2022/11/24 07:03:24;;;;;;;11.37;8.83;;;8.20;99.90;;;;;;4994596;28;20187;-49
2022/11/24 07:05:57;;;;;;;9.63;8.57;;;;;;;;;;5012033;28;20180;-47
2022/11/24 07:08:23;;;;;;;9.40;8.27;;;8.60;99.90;;;;;;5012246;28;20200;-47
2022/11/24 07:10:48;;;;;;;9.80;8.70;;;8.60;99.90;;;;;;5012275;28;20235;-47
2022/11/24 07:13:14;;;;;;;9.47;8.50;;;8.60;99.90;;;;;;5012014;28;20315;-49
2022/11/24 07:15:40;;;;;;;10.00;9.00;;;;;;;;;;5011796;28;20626;-49
2022/11/24 07:18:06;;;;;;;9.90;8.33;;;;;;;;;;5012216;28;20180;-50
2022/11/24 07:20:32;;;;;;;10.40;8.90;;;;;;;;;;5011757;28;20219;-47
2022/11/24 07:22:58;;;;;;;9.27;8.27;;;8.50;99.90;;;;;;5012061;28;20191;-47
2022/11/24 07:25:24;;;;;;;9.30;8.30;;;;;;;;;;5011596;28;20680;-47
2022/11/24 07:27:58;;;;;;;10.83;8.50;;;8.30;99.90;;;;;;5011760;28;20188;-49
2022/11/24 07:30:24;;;;;;;9.80;8.27;;;8.40;99.90;;;;;;5011700;28;20224;-47
2022/11/24 07:32:50;;;;;;;10.13;8.90;;;;;;;;;;5011945;28;20550;-48
2022/11/24 07:35:16;;;;;;;9.93;8.90;;;;;;;;;;5011556;28;20226;-48
2022/11/24 07:37:43;;;;;;;9.00;8.10;;;;;;;;;;5011992;28;20177;-51
2022/11/24 07:40:09;;;;;;;9.20;8.30;;;8.90;99.90;;;;;;4994161;28;20203;-49
2022/11/24 07:42:35;;;;;;;9.50;8.50;;;8.70;99.90;;;;;;5011714;28;20168;-47
2022/11/24 07:45:01;;;;;;;10.13;8.93;;;;;;;;;;5011674;28;20242;-48
2022/11/24 07:47:26;;;;;;;9.20;8.27;;;8.70;99.90;;;;;;5011427;28;20207;-52
2022/11/24 07:49:52;;;;;;;9.37;8.37;;;;;;;;;;5011167;28;20192;-48
2022/11/24 07:52:18;;;;;;;8.93;8.03;;;;;;;;;;5011099;28;20278;-49
2022/11/24 07:54:45;;;;;;;9.63;8.30;;;;;;;;;;5011156;28;20216;-47
2022/11/24 07:57:11;;;;;;;10.30;8.57;;;;;;;;;;5011127;28;20219;-48
2022/11/24 07:59:37;;;;;;;12.93;10.77;;;;;;;;;;5011294;28;20688;-51
2022/11/24 08:02:03;;;;;;;12.07;10.37;;;;;;;;;;5011154;28;20553;-50
2022/11/24 08:04:29;;;;;;;12.63;10.20;;;;;;;;;;5011181;28;20172;-51
2022/11/24 08:06:55;;;;;;;15.13;13.13;;;;;;;;;;5011147;28;20696;-51
2022/11/24 08:09:21;;;;;;;14.43;12.90;;;;;;;;;;5011288;28;20573;-50
2022/11/24 08:11:47;;;;;;;11.77;10.23;;;;;;;;;;5011212;28;20207;-51
2022/11/24 08:14:13;;;;;;;11.07;9.90;;;;;;;;;;5010814;28;20175;-49
2022/11/24 08:16:38;;;;;;;10.87;9.50;;;8.70;99.90;;;;;;5011205;28;20176;-54
2022/11/24 08:19:04;;;;;;;10.73;9.53;;;;;;;;;;5010909;28;20196;-52
2022/11/24 08:21:31;;;;;;;11.00;9.47;;;;;;;;;;5011108;28;20557;-51
2022/11/24 08:23:57;;;;;;;12.67;10.53;;;;;;;;;;5010609;28;20263;-52
2022/11/24 08:26:24;;;;;;;11.10;8.80;;;;;;;;;;5011257;28;20211;-49
2022/11/24 08:28:52;;;;;;;10.70;9.37;;;;;;;;;;5011164;28;20184;-49
2022/11/24 08:31:18;;;;;;;12.17;10.43;;;;;;;;;;5011066;28;20203;-55
2022/11/24 08:33:45;;;;;;;13.87;11.33;;;;;;;;;;5011055;28;20203;-50
2022/11/24 08:36:16;;;;;;;12.37;10.90;;;9.10;99.90;;;;;;5011567;28;20185;-51
2022/11/24 08:38:43;;;;;;;13.93;10.90;;;;;;;;;;5007009;28;20177;-50
2022/11/24 08:41:13;;;;;;;14.43;11.37;;;;;;;;;;5014959;28;20656;-52
2022/11/24 08:43:39;;;;;;;11.83;10.63;;;;;;;;;;5014834;28;20259;-55
2022/11/24 08:46:07;;;;;;;11.70;9.93;;;9.30;99.90;;;;;;5030383;28;20196;-53
2022/11/24 08:48:33;;;;;;;12.13;10.80;;;;;;;;;;5034783;28;20184;-52
2022/11/24 08:51:06;;;;;;;11.47;9.93;;;9.30;99.90;;;;;;5016572;28;20196;-51
2022/11/24 08:53:32;;;;;;;9.90;8.87;;;;;;;;;;5034506;28;20687;-53
2022/11/24 08:56:02;;;;;;;10.80;9.30;;;9.40;99.90;;;;;;5034373;28;20203;-53
2022/11/24 08:58:28;;;;;;;10.77;9.53;;;9.20;99.90;;;;;;5034606;28;20183;-51
2022/11/24 09:00:55;;;;;;;12.53;11.23;;;;;;;;;;5034223;28;20183;-50
2022/11/24 09:03:21;;;;;;;14.17;11.77;;;;;;;;;;5034451;28;20180;-52
2022/11/24 09:05:46;;;;;;;10.87;9.40;;;;;;;;;;5034014;28;20184;-51
2022/11/24 09:08:12;;;;;;;10.87;9.67;;;9.40;99.90;;;;;;5034310;28;20266;-47
2022/11/24 09:10:38;;;;;;;10.50;9.40;;;9.10;99.90;;;;;;5034387;28;20250;-50
2022/11/24 09:13:03;;;;;;;13.97;11.97;;;9.50;99.90;;;;;;5033960;28;20215;-47
2022/11/24 09:15:29;;;;;;;12.90;9.43;;;;;;;;;;5034075;28;20691;-47
2022/11/24 09:17:56;;;;;;;9.63;8.63;;;9.70;99.90;;;;;;5034040;28;20172;-47
2022/11/24 09:20:22;;;;;;;10.97;9.13;;;;;;;;;;5033880;28;20284;-48
2022/11/24 09:22:48;;;;;;;10.53;8.80;;;;;;;;;;5033833;28;20176;-52
2022/11/24 09:25:14;;;;;;;10.83;9.70;;;;;;;;;;5033830;28;20176;-52
2022/11/24 09:27:39;;;;;;;11.17;9.10;;;9.90;99.90;;;;;;5033821;28;20188;-47
2022/11/24 09:30:06;;;;;;;11.30;8.83;;;10.00;99.90;;;;;;5033942;28;20681;-51
2022/11/24 09:32:31;;;;;;;10.47;8.33;;;;;;;;;;5033951;28;20603;-51
2022/11/24 09:34:58;;;;;;;10.37;8.80;;;;;;;;;;5033427;28;20168;-47
2022/11/24 09:37:24;;;;;;;10.33;8.70;;;;;;;;;;5033814;28;20621;-52
2022/11/24 09:39:50;;;;;;;9.20;7.77;;;;;;;;;;5033524;28;20263;-50
2022/11/24 09:42:49;;;;;;;8.23;7.43;;;11.00;99.90;;;;;;5033832;28;20540;-52
2022/11/24 09:45:15;;;;;;;8.90;7.80;;;;;;;;;;5033226;28;20180;-47
2022/11/24 09:47:41;;;;;;;13.70;11.23;;;;;;;;;;5032545;28;20203;-53
2022/11/24 09:50:15;;;;;;;8.73;7.37;;;10.90;99.90;;;;;;5033301;28;20290;-50
2022/11/24 09:52:47;;;;;;;9.33;7.30;;;;;;;;;;5033584;28;20238;-47
2022/11/24 09:55:25;;;;;;;8.07;7.13;;;;;;;;;;5032996;28;20172;-49
2022/11/24 09:58:00;;;;;;;9.33;7.67;;;11.10;99.90;;;;;;5022618;28;20180;-51
2022/11/24 10:00:26;;;;;;;8.70;7.20;;;;;;;;;;5012670;28;20573;-52
2022/11/24 10:02:52;;;;;;;9.27;7.50;;;;;;;;;;5013594;28;20259;-52
2022/11/24 10:05:19;;;;;;;9.77;7.80;;;;;;;;;;5013028;28;20271;-52
2022/11/24 10:08:10;;;;;;;10.63;8.80;;;11.40;99.90;;;;;;5013522;28;20180;-52
2022/11/24 10:11:09;;;;;;;7.77;6.10;;;;;;;;;;5013147;28;20223;-50
2022/11/24 10:13:53;;;;;;;6.87;5.63;;;;;;;;;;4933371;29;20319;-51
2022/11/24 10:16:28;;;;;;;6.93;6.00;;;11.20;99.90;;;;;;4933272;29;20186;-51
2022/11/24 10:19:20;;;;;;;7.17;6.47;;;11.10;99.90;;;;;;4933517;29;20555;-53
2022/11/24 10:21:55;;;;;;;8.30;6.97;;;;;;;;;;4933419;29;20187;-49
2022/11/24 10:24:27;;;;;;;9.07;6.40;;;;;;;;;;4933241;29;20187;-48
2022/11/24 10:27:00;;;;;;;8.83;6.43;;;;;;;;;;4933225;29;20186;-53
2022/11/24 10:29:40;;;;;;;9.70;6.87;;;;;;;;;;4933302;29;20624;-52
2022/11/24 10:32:22;;;;;;;8.10;6.30;;;11.20;99.90;;;;;;4932950;29;20210;-49
2022/11/24 10:34:49;;;;;;;6.93;5.33;;;;;;;;;;4932996;29;20175;-50
2022/11/24 10:37:21;;;;;;;8.07;7.10;;;;;;;;;;4932735;29;20227;-51
2022/11/24 10:39:48;;;;;;;8.00;6.50;;;;;;;;;;4933105;29;20404;-49
2022/11/24 10:42:19;;;;;;;9.43;6.73;;;11.10;99.90;;;;;;4933158;29;20187;-50
2022/11/24 10:44:45;;;;;;;7.97;6.00;;;;;;;;;;4932566;29;20698;-48
2022/11/24 10:47:18;;;;;;;6.43;5.43;;;11.30;99.90;;;;;;4932473;29;20183;-52
2022/11/24 10:49:49;;;;;;;9.40;6.00;;;;;;;;;;4990862;28;20721;-48
2022/11/24 10:52:17;;;;;;;8.37;5.63;;;11.20;99.90;;;;;;5012644;28;20592;-53
2022/11/24 10:54:53;;;;;;;6.97;5.23;;;;;;;;;;5011633;28;20179;-49
2022/11/24 10:57:36;;;;;;;7.40;5.80;;;;;;;;;;5012296;28;20255;-50
2022/11/24 11:00:22;;;;;;;6.63;5.77;;;;;;;;;;5011881;28;20192;-51
2022/11/24 11:02:48;;;;;;;6.67;5.00;;;;;;;;;;4994824;28;20177;-51
2022/11/24 11:05:40;;;;;;;6.47;5.20;;;11.00;99.90;;;;;;5011887;28;20195;-52
2022/11/24 11:08:20;;;;;;;6.13;4.83;;;;;;;;;;5012358;28;20315;-52
2022/11/24 11:10:48;;;;;;;6.73;5.17;;;;;;;;;;5012350;28;20703;-50
2022/11/24 11:13:25;;;;;;;8.30;5.70;;;;;;;;;;5012300;28;20196;-48
2022/11/24 11:15:51;;;;;;;6.90;5.00;;;;;;;;;;5011756;28;20630;-53
2022/11/24 11:18:18;;;;;;;7.00;5.13;;;10.90;99.90;;;;;;5012276;28;20176;-52
2022/11/24 11:20:53;;;;;;;7.90;5.60;;;10.60;99.90;;;;;;5011897;28;20212;-50
2022/11/24 11:23:26;;;;;;;7.03;4.93;;;;;;;;;;5012136;28;20584;-50
2022/11/24 11:26:12;;;;;;;6.33;4.33;;;;;;;;;;5011558;28;20248;-50
2022/11/24 11:28:38;;;;;;;6.93;5.30;;;;;;;;;;5012013;28;20661;-52
2022/11/24 11:31:05;;;;;;;7.10;5.20;;;10.30;99.90;;;;;;5011712;28;20231;-50
2022/11/24 11:33:32;;;;;;;6.27;4.63;;;;;;;;;;5011757;28;20204;-49
2022/11/24 11:36:00;;;;;;;7.80;5.00;;;10.60;99.90;;;;;;5011600;28;20176;-50
2022/11/24 11:38:31;;;;;;;6.63;4.90;;;10.70;99.90;;;;;;5011740;28;20247;-50
2022/11/24 11:40:57;;;;;;;7.17;4.30;;;;;;;;;;5011902;28;20234;-50
2022/11/24 11:43:28;;;;;;;7.10;4.73;;;;;;;;;;5011607;28;20550;-49
2022/11/24 11:46:02;;;;;;;6.67;4.53;;;;;;;;;;5011637;28;20264;-53
2022/11/24 11:48:32;;;;;;;5.77;4.50;;;11.70;99.90;;;;;;5011451;28;20226;-48
2022/11/24 11:50:58;;;;;;;5.60;3.93;;;;;;;;;;5011954;28;20188;-51
2022/11/24 11:53:24;;;;;;;5.53;3.90;;;;;;;;;;5011452;28;20204;-53
2022/11/24 11:56:02;;;;;;;5.30;3.87;;;12.80;99.90;;;;;;5011352;28;20172;-50
2022/11/24 11:58:33;;;;;;;5.67;4.03;;;13.50;99.90;;;;;;5011331;28;20169;-47
2022/11/24 12:01:18;;;;;;;5.27;4.03;;;;;;;;;;5011501;28;20196;-53
2022/11/24 12:04:00;;;;;;;5.37;3.83;;;13.90;99.90;;;;;;5010920;28;20181;-52
2022/11/24 12:06:56;;;;;;;5.40;3.43;;;13.80;99.90;;;;;;5011526;28;20176;-53
2022/11/24 12:09:28;;;;;;;6.67;4.00;;;13.80;99.90;;;;;;5011093;28;20226;-51
2022/11/24 12:12:39;;;;;;;5.60;3.83;;;13.40;99.90;;;;;;5010697;28;20541;-50
2022/11/24 12:15:05;;;;;;;5.83;3.73;;;;;;;;;;5010929;28;20223;-49
2022/11/24 12:17:39;;;;;;;5.97;4.17;;;13.40;99.90;;;;;;5011283;28;20177;-53
2022/11/24 12:22:47;;;;;;;5.30;3.83;;;13.00;99.90;;;;;;5027725;28;20227;-61
2022/11/24 12:25:27;;;;;;;4.87;3.43;;;;;;;;;;5039606;28;20698;-60
2022/11/24 12:28:10;;;;;;;5.73;3.63;;;;;;;;;;5044156;28;20191;-61
2022/11/24 12:30:51;;;;;;;4.90;3.83;;;;;;;;;;5046240;28;20203;-61
2022/11/24 12:33:27;;;;;;;4.17;3.77;;;;;;;;;;5050995;28;20214;-60
2022/11/24 12:36:05;;;;;;;6.57;4.00;;;;;;;;;;5050683;28;20201;-60
2022/11/24 12:38:43;;;;;;;6.03;4.40;;;;;;;;;;5042732;28;20556;-61
2022/11/24 12:41:18;;;;;;;5.80;4.23;;;13.30;99.90;;;;;;5050451;28;20199;-61
2022/11/24 12:43:55;;;;;;;7.50;4.60;;;;;;;;;;5050751;28;20175;-61
2022/11/24 12:46:37;;;;;;;7.77;4.80;;;13.10;99.90;;;;;;5050882;28;20232;-59
2022/11/24 12:49:21;;;;;;;7.67;5.50;;;;;;;;;;5051319;28;20189;-60
2022/11/24 12:51:50;;;;;;;9.20;5.73;;;;;;;;;;5050825;28;20202;-58
2022/11/24 12:54:19;;;;;;;10.40;8.70;;;12.50;99.90;;;;;;5051020;28;20171;-62
2022/11/24 12:56:50;;;;;;;8.33;6.07;;;;;;;;;;5042970;28;20178;-61
2022/11/24 12:59:16;;;;;;;7.03;6.30;;;;;;;;;;5050711;28;20548;-61
2022/11/24 13:01:58;;;;;;;9.57;6.63;;;;;;;;;;5050720;28;20187;-59
2022/11/24 13:04:36;;;;;;;13.17;11.73;;;12.20;99.90;;;;;;5050341;28;20206;-60
2022/11/24 13:07:02;;;;;;;7.63;5.97;;;;;;;;;;5050613;28;20206;-61
2022/11/24 13:09:28;;;;;;;5.53;4.70;;;;;;;;;;5050679;28;20175;-61
2022/11/24 13:12:05;;;;;;;3.37;2.50;;;;;;;;;;5032598;28;20229;-60
2022/11/24 13:14:31;;;;;;;3.77;3.00;;;;;;;;;;5050302;28;20556;-61
2022/11/24 13:16:58;;;;;;;3.67;2.40;;;;;;;;;;5050615;28;20182;-60
2022/11/24 13:19:30;;;;;;;4.37;3.17;;;;;;;;;;5050452;28;20671;-60
2022/11/24 13:22:00;;;;;;;20.63;14.57;;;;;;;;;;5050986;28;20221;-60
2022/11/24 13:24:32;;;;;;;4.20;2.40;;;9.70;99.90;;;;;;5053847;28;20171;-60
2022/11/24 13:27:23;;;;;;;2.30;2.10;;;;;;;;;;5054119;28;20171;-61
2022/11/24 13:29:49;;;;;;;3.27;2.50;;;;;;;;;;5047461;28;20167;-60
2022/11/24 13:32:18;;;;;;;4.10;2.40;;;9.00;99.90;;;;;;5053916;28;20240;-61
2022/11/24 13:34:44;;;;;;;5.73;3.03;;;;;;;;;;5053485;28;20175;-60
2022/11/24 13:37:16;;;;;;;4.13;2.73;;;;;;;;;;5054190;28;20167;-59
2022/11/24 13:39:48;;;;;;;3.57;2.50;;;;;;;;;;5053759;28;20535;-58
2022/11/24 13:42:14;;;;;;;5.90;2.37;;;;;;;;;;5053937;28;20635;-59
2022/11/24 13:44:44;;;;;;;4.40;2.50;;;;;;;;;;5053464;28;20384;-59
2022/11/24 13:47:30;;;;;;;6.73;2.97;;;;;;;;;;5053588;28;20175;-59
2022/11/24 13:49:56;;;;;;;5.47;2.90;;;;;;;;;;5053686;28;20229;-58
2022/11/24 13:52:42;;;;;;;3.50;2.70;;;;;;;;;;5053393;28;20297;-56
2022/11/24 13:55:11;;;;;;;5.73;2.90;;;8.40;99.90;;;;;;5053435;28;20171;-59
2022/11/24 13:58:24;;;;;;;5.33;2.73;;;8.30;99.90;;;;;;5053600;28;20229;-59
2022/11/24 14:01:27;;;;;;;3.40;2.97;;;8.40;99.90;;;;;;5022592;28;20203;-57
2022/11/24 14:03:53;;;;;;;6.23;3.80;;;;;;;;;;5053321;28;20171;-59
2022/11/24 14:06:32;;;;;;;5.00;3.23;;;8.10;99.90;;;;;;5053322;28;20175;-60
2022/11/24 14:09:00;;;;;;;7.20;3.23;;;;;;;;;;5053329;28;20183;-60
2022/11/24 14:11:27;;;;;;;7.10;3.20;;;8.00;99.90;;;;;;5053424;28;20579;-59
2022/11/24 14:13:53;;;;;;;4.03;2.70;;;;;;;;;;5052816;28;20726;-58
2022/11/24 14:16:20;;;;;;;4.90;2.20;;;;;;;;;;5053238;28;20167;-58
2022/11/24 14:18:48;;;;;;;4.73;2.43;;;8.10;99.90;;;;;;5053025;28;20241;-59
2022/11/24 14:21:20;;;;;;;2.77;2.00;;;;;;;;;;5053035;28;20238;-59